createdAt,value
2023-01-30T00:01:56.231Z,17.40
2023-01-30T00:04:24.004Z,15.73
2023-01-30T00:06:51.622Z,18.43
2023-01-30T00:09:19.597Z,19.83
2023-01-30T00:11:47.180Z,18.03
2023-01-30T00:14:16.169Z,14.43
2023-01-30T00:16:43.783Z,17.40
2023-01-30T00:19:12.062Z,15.37
2023-01-30T00:21:39.635Z,16.03
2023-01-30T00:24:08.253Z,24.90
2023-01-30T00:26:35.902Z,19.20
2023-01-30T00:29:04.458Z,17.40
2023-01-30T00:31:33.483Z,17.07
2023-01-30T00:34:01.409Z,16.57
2023-01-30T00:36:29.002Z,18.17
2023-01-30T00:38:58.397Z,15.70
2023-01-30T00:41:46.112Z,18.30
2023-01-30T00:44:32.219Z,24.23
2023-01-30T00:47:08.678Z,17.43
2023-01-30T00:49:37.474Z,19.43
2023-01-30T00:52:06.099Z,18.73
2023-01-30T00:54:34.065Z,20.17
2023-01-30T00:57:01.906Z,19.57
2023-01-30T00:59:29.514Z,17.97
2023-01-30T01:01:57.293Z,17.77
2023-01-30T01:04:27.782Z,14.50
2023-01-30T01:06:55.463Z,18.97
2023-01-30T01:09:23.092Z,19.57
2023-01-30T01:11:50.699Z,17.77
2023-01-30T01:14:18.841Z,16.50
2023-01-30T01:16:46.654Z,19.13
2023-01-30T01:19:14.595Z,20.93
2023-01-30T01:21:43.548Z,18.80
2023-01-30T01:24:15.072Z,21.00
2023-01-30T01:26:43.425Z,17.57
2023-01-30T01:29:14.101Z,19.90
2023-01-30T01:31:42.276Z,20.33
2023-01-30T01:34:10.781Z,17.50
2023-01-30T01:36:54.943Z,20.47
2023-01-30T01:39:24.848Z,19.33
2023-01-30T01:41:51.761Z,30.60
2023-01-30T01:44:19.625Z,15.77
2023-01-30T01:46:52.103Z,16.43
2023-01-30T01:49:24.031Z,15.53
2023-01-30T01:51:56.430Z,15.93
2023-01-30T01:54:33.772Z,19.20
2023-01-30T01:57:05.689Z,20.10
2023-01-30T01:59:39.473Z,16.90
2023-01-30T02:02:11.785Z,18.63
2023-01-30T02:05:01.624Z,18.07
2023-01-30T02:07:34.342Z,17.13
2023-01-30T02:10:04.550Z,20.70
2023-01-30T02:12:32.464Z,19.97
2023-01-30T02:15:02.099Z,23.30
2023-01-30T02:17:29.773Z,17.57
2023-01-30T02:20:05.153Z,20.97
2023-01-30T02:22:50.656Z,20.33
2023-01-30T02:25:50.002Z,22.87
2023-01-30T02:28:48.751Z,19.57
2023-01-30T02:31:37.630Z,22.07
2023-01-30T02:34:18.667Z,21.37
2023-01-30T02:36:57.296Z,19.80
2023-01-30T02:39:38.072Z,19.80
2023-01-30T02:42:13.279Z,17.63
2023-01-30T02:44:51.853Z,20.40
2023-01-30T02:47:26.402Z,18.50
2023-01-30T02:50:02.149Z,21.90
2023-01-30T02:52:31.642Z,16.40
2023-01-30T02:54:59.256Z,16.87
2023-01-30T02:57:28.061Z,17.73
2023-01-30T03:00:04.208Z,19.50
2023-01-30T03:02:51.991Z,18.30
2023-01-30T03:05:55.657Z,20.83
2023-01-30T03:08:32.150Z,17.33
2023-01-30T03:11:04.801Z,14.27
2023-01-30T03:13:46.243Z,13.00
2023-01-30T03:16:20.488Z,12.77
2023-01-30T03:18:50.380Z,14.30
2023-01-30T03:21:19.029Z,14.70
2023-01-30T03:23:47.424Z,18.10
2023-01-30T03:26:19.731Z,17.13
2023-01-30T03:28:50.519Z,18.67
2023-01-30T03:31:19.167Z,18.23
2023-01-30T03:33:46.875Z,16.37
2023-01-30T03:36:16.661Z,24.40
2023-01-30T03:38:46.355Z,16.10
2023-01-30T03:41:14.143Z,20.77
2023-01-30T03:43:41.963Z,18.67
2023-01-30T03:46:09.596Z,15.93
2023-01-30T03:48:39.753Z,17.03
2023-01-30T03:51:07.923Z,17.43
2023-01-30T03:53:37.527Z,17.07
2023-01-30T03:56:06.406Z,15.30
2023-01-30T03:58:36.847Z,16.80
2023-01-30T04:01:16.674Z,18.07
2023-01-30T04:03:44.846Z,16.00
2023-01-30T04:06:12.539Z,18.63
2023-01-30T04:08:42.262Z,17.33
2023-01-30T04:11:15.804Z,17.20
2023-01-30T04:13:43.666Z,20.97
2023-01-30T04:16:17.259Z,17.10
2023-01-30T04:19:17.633Z,19.70
2023-01-30T04:21:46.120Z,16.30
2023-01-30T04:24:15.447Z,18.57
2023-01-30T04:26:43.248Z,20.60
2023-01-30T04:29:11.560Z,17.17
2023-01-30T04:31:40.386Z,17.90
2023-01-30T04:34:23.861Z,18.53
2023-01-30T04:36:51.593Z,19.30
2023-01-30T04:39:22.128Z,18.50
2023-01-30T04:41:50.119Z,19.33
2023-01-30T04:44:18.128Z,19.73
2023-01-30T04:47:08.987Z,15.93
2023-01-30T04:49:37.271Z,18.23
2023-01-30T04:52:07.002Z,19.73
2023-01-30T04:54:39.008Z,17.83
2023-01-30T04:57:06.629Z,19.00
2023-01-30T04:59:34.842Z,20.00
2023-01-30T05:02:05.848Z,16.63
2023-01-30T05:04:34.112Z,14.83
2023-01-30T05:07:01.726Z,20.67
2023-01-30T05:09:29.886Z,20.83
2023-01-30T05:11:58.856Z,17.43
2023-01-30T05:14:26.691Z,18.47
2023-01-30T05:16:54.340Z,17.83
2023-01-30T05:19:22.555Z,17.27
2023-01-30T05:21:50.163Z,17.27
2023-01-30T05:24:18.304Z,18.30
2023-01-30T05:26:45.903Z,19.87
2023-01-30T05:29:14.862Z,19.10
2023-01-30T05:31:42.502Z,19.67
2023-01-30T05:34:13.080Z,20.33
2023-01-30T05:36:40.711Z,22.67
2023-01-30T05:39:09.268Z,16.53
2023-01-30T05:41:37.211Z,18.23
2023-01-30T05:44:05.455Z,19.37
2023-01-30T05:46:34.398Z,15.57
2023-01-30T05:49:04.126Z,21.93
2023-01-30T05:51:31.939Z,16.03
2023-01-30T05:53:59.926Z,19.20
2023-01-30T05:56:27.533Z,22.40
2023-01-30T05:58:57.269Z,15.37
2023-01-30T06:01:25.213Z,22.10
2023-01-30T06:03:54.900Z,18.53
2023-01-30T06:06:23.587Z,18.60
2023-01-30T06:08:54.736Z,17.93
2023-01-30T06:11:22.719Z,18.37
2023-01-30T06:13:51.120Z,18.33
2023-01-30T06:16:19.608Z,16.97
2023-01-30T06:18:48.257Z,15.30
2023-01-30T06:21:17.631Z,12.73
2023-01-30T06:23:46.685Z,15.20
2023-01-30T06:26:14.510Z,17.90
2023-01-30T06:28:42.916Z,19.23
2023-01-30T06:31:10.751Z,13.47
2023-01-30T06:33:38.464Z,14.13
2023-01-30T06:36:06.844Z,19.50
2023-01-30T06:38:35.777Z,16.80
2023-01-30T06:41:03.748Z,17.00
2023-01-30T06:43:31.317Z,19.07
2023-01-30T06:46:00.062Z,16.20
2023-01-30T06:48:27.999Z,14.27
2023-01-30T06:50:55.917Z,15.07
2023-01-30T06:53:30.055Z,22.30
2023-01-30T06:55:59.541Z,18.87
2023-01-30T06:58:27.231Z,13.03
2023-01-30T07:00:55.207Z,19.47
2023-01-30T07:03:22.805Z,18.70
2023-01-30T07:05:50.753Z,19.37
2023-01-30T07:08:18.405Z,14.80
2023-01-30T07:10:46.108Z,18.97
2023-01-30T07:13:15.502Z,16.60
2023-01-30T07:15:43.102Z,15.17
2023-01-30T07:18:10.694Z,13.23
2023-01-30T07:20:38.289Z,13.20
2023-01-30T07:23:05.939Z,18.70
2023-01-30T07:25:34.283Z,13.67
2023-01-30T07:28:03.402Z,16.70
2023-01-30T07:30:36.597Z,14.30
2023-01-30T07:33:06.273Z,16.60
2023-01-30T07:35:36.546Z,17.93
2023-01-30T07:38:04.550Z,16.53
2023-01-30T07:40:32.263Z,16.37
2023-01-30T07:43:01.889Z,13.30
2023-01-30T07:45:37.053Z,12.33
2023-01-30T07:48:04.881Z,16.90
2023-01-30T07:50:32.489Z,14.27
2023-01-30T07:53:00.176Z,12.43
2023-01-30T07:55:28.450Z,12.17
2023-01-30T07:57:56.326Z,14.97
2023-01-30T08:00:24.208Z,17.67
2023-01-30T08:02:53.118Z,13.27
2023-01-30T08:05:21.591Z,12.50
2023-01-30T08:07:49.382Z,12.87
2023-01-30T08:10:18.146Z,20.03
2023-01-30T08:12:46.370Z,12.10
2023-01-30T08:15:14.176Z,14.00
2023-01-30T08:17:42.078Z,12.47
2023-01-30T08:20:16.868Z,10.53
2023-01-30T08:22:45.102Z,13.17
2023-01-30T08:25:12.750Z,9.77
2023-01-30T08:27:40.692Z,10.07
2023-01-30T08:30:09.705Z,11.90
2023-01-30T08:32:37.666Z,12.30
2023-01-30T08:35:05.782Z,10.50
2023-01-30T08:37:34.719Z,11.37
2023-01-30T08:40:02.409Z,11.47
2023-01-30T08:42:30.470Z,9.50
2023-01-30T08:44:58.074Z,11.83
2023-01-30T08:47:26.450Z,10.37
2023-01-30T08:49:54.065Z,9.30
2023-01-30T08:52:22.547Z,10.40
2023-01-30T08:54:51.454Z,7.40
2023-01-30T08:57:20.408Z,12.57
2023-01-30T08:59:48.062Z,8.37
2023-01-30T09:02:15.701Z,9.27
2023-01-30T09:04:43.373Z,7.77
2023-01-30T09:07:11.332Z,8.93
2023-01-30T09:09:38.942Z,10.23
2023-01-30T09:12:08.433Z,7.67
2023-01-30T09:14:36.018Z,7.83
2023-01-30T09:17:04.421Z,8.80
2023-01-30T09:19:32.087Z,7.23
2023-01-30T09:22:00.303Z,7.43
2023-01-30T09:24:27.933Z,7.53
2023-01-30T09:26:57.836Z,10.40
2023-01-30T09:29:27.609Z,9.87
2023-01-30T09:31:56.462Z,9.90
2023-01-30T09:34:27.427Z,8.30
2023-01-30T09:36:55.460Z,7.33
2023-01-30T09:39:23.035Z,7.37
2023-01-30T09:42:11.111Z,7.97
2023-01-30T09:45:27.044Z,6.93
2023-01-30T09:48:03.809Z,7.30
2023-01-30T09:51:13.118Z,11.23
2023-01-30T09:54:01.280Z,11.17
2023-01-30T09:56:28.995Z,7.10
2023-01-30T09:58:58.983Z,6.97
2023-01-30T10:01:35.258Z,6.77
2023-01-30T10:04:10.774Z,6.87
2023-01-30T10:06:46.609Z,7.27
2023-01-30T10:09:24.589Z,7.47
2023-01-30T10:12:05.239Z,8.57
2023-01-30T10:14:58.226Z,8.43
2023-01-30T10:17:37.558Z,9.60
2023-01-30T10:20:31.431Z,7.67
2023-01-30T10:23:21.123Z,6.93
2023-01-30T10:25:53.629Z,7.97
2023-01-30T10:28:27.390Z,8.43
2023-01-30T10:31:01.656Z,8.40
2023-01-30T10:33:34.339Z,7.37
2023-01-30T10:36:08.088Z,7.53
2023-01-30T10:38:41.207Z,7.43
2023-01-30T10:41:16.808Z,7.87
2023-01-30T10:43:48.740Z,8.87
2023-01-30T10:46:31.619Z,8.80
2023-01-30T10:49:06.194Z,10.63
2023-01-30T10:51:48.030Z,7.33
2023-01-30T10:54:21.751Z,7.17
2023-01-30T10:56:58.898Z,10.93
2023-01-30T10:59:40.854Z,14.57
2023-01-30T11:02:24.075Z,8.00
2023-01-30T11:04:59.349Z,15.07
2023-01-30T11:07:30.804Z,11.90
2023-01-30T11:10:00.197Z,9.20
2023-01-30T11:12:27.865Z,10.93
2023-01-30T11:15:00.836Z,10.13
2023-01-30T11:17:35.260Z,11.90
2023-01-30T11:20:13.364Z,8.60
2023-01-30T11:22:47.553Z,7.93
2023-01-30T11:25:18.372Z,8.80
2023-01-30T11:27:54.022Z,7.87
2023-01-30T11:30:23.549Z,9.40
2023-01-30T11:32:51.602Z,9.00
2023-01-30T11:35:29.633Z,8.47
2023-01-30T11:38:12.987Z,9.67
2023-01-30T11:40:41.415Z,7.67
2023-01-30T11:43:13.474Z,12.70
2023-01-30T11:45:45.700Z,8.63
2023-01-30T11:48:33.362Z,9.20
2023-01-30T11:51:08.368Z,9.93
2023-01-30T11:53:41.233Z,8.13
2023-01-30T11:56:15.795Z,11.77
2023-01-30T11:58:47.052Z,11.67
2023-01-30T12:01:16.175Z,9.13
2023-01-30T12:03:48.726Z,10.97
2023-01-30T12:06:25.724Z,9.20
2023-01-30T12:08:55.472Z,9.47
2023-01-30T12:11:29.740Z,9.00
2023-01-30T12:14:14.306Z,10.57
2023-01-30T12:16:51.439Z,10.30
2023-01-30T12:19:32.225Z,10.33
2023-01-30T12:22:08.473Z,8.13
2023-01-30T12:24:42.278Z,8.23
2023-01-30T12:27:17.332Z,14.60
2023-01-30T12:29:56.371Z,8.27
2023-01-30T12:32:28.796Z,10.27
2023-01-30T12:34:57.316Z,8.67
2023-01-30T12:37:39.641Z,7.27
2023-01-30T12:40:18.732Z,7.63
2023-01-30T12:43:09.133Z,6.90
2023-01-30T12:45:44.825Z,6.37
2023-01-30T12:48:48.356Z,7.13
2023-01-30T12:51:33.722Z,7.80
2023-01-30T12:54:14.659Z,9.10
2023-01-30T12:56:59.056Z,7.53
2023-01-30T12:59:36.027Z,7.83
2023-01-30T13:02:35.876Z,7.57
2023-01-30T13:05:21.517Z,7.80
2023-01-30T13:08:04.193Z,8.43
2023-01-30T13:10:39.239Z,7.50
2023-01-30T13:13:15.644Z,8.67
2023-01-30T13:15:52.380Z,8.50
2023-01-30T13:18:26.778Z,8.43
2023-01-30T13:21:03.201Z,6.30
2023-01-30T13:23:42.772Z,7.83
2023-01-30T13:26:15.118Z,6.70
2023-01-30T13:28:46.490Z,5.70
2023-01-30T13:31:21.531Z,6.23
2023-01-30T13:33:53.511Z,7.57
2023-01-30T13:36:27.332Z,6.50
2023-01-30T13:39:00.651Z,7.60
2023-01-30T13:41:36.599Z,8.57
2023-01-30T13:44:16.317Z,7.70
2023-01-30T13:46:45.316Z,6.10
2023-01-30T13:49:21.956Z,8.33
2023-01-30T13:51:54.058Z,7.57
2023-01-30T13:54:37.742Z,8.20
2023-01-30T13:57:20.808Z,6.80
2023-01-30T14:00:10.677Z,7.87
2023-01-30T14:03:22.986Z,8.50
2023-01-30T14:06:02.569Z,8.17
2023-01-30T14:08:33.500Z,9.67
2023-01-30T14:11:01.392Z,8.63
2023-01-30T14:13:31.407Z,7.10
2023-01-30T14:16:02.808Z,7.70
2023-01-30T14:18:33.987Z,9.67
2023-01-30T14:21:15.982Z,7.50
2023-01-30T14:23:56.130Z,5.57
2023-01-30T14:27:02.681Z,8.07
2023-01-30T14:29:54.343Z,6.07
2023-01-30T14:32:54.403Z,5.87
2023-01-30T14:35:27.257Z,6.60
2023-01-30T14:38:13.588Z,6.87
2023-01-30T14:40:49.032Z,7.27
2023-01-30T14:43:37.680Z,6.23
2023-01-30T14:46:09.044Z,6.07
2023-01-30T14:48:44.468Z,5.03
2023-01-30T14:51:20.106Z,5.87
2023-01-30T14:53:55.082Z,7.73
2023-01-30T14:56:41.103Z,9.37
2023-01-30T14:59:18.006Z,6.67
2023-01-30T15:02:07.810Z,8.00
2023-01-30T15:04:44.501Z,7.10
2023-01-30T15:07:16.089Z,7.80
2023-01-30T15:09:51.146Z,7.00
2023-01-30T15:12:56.125Z,5.83
2023-01-30T15:15:31.317Z,7.63
2023-01-30T15:18:24.154Z,5.03
2023-01-30T15:21:15.532Z,6.43
2023-01-30T15:23:57.931Z,6.00
2023-01-30T15:26:34.806Z,8.40
2023-01-30T15:29:27.755Z,7.73
2023-01-30T15:31:56.454Z,6.30
2023-01-30T15:34:29.068Z,7.07
2023-01-30T15:36:57.494Z,7.27
2023-01-30T15:39:27.327Z,7.90
2023-01-30T15:42:08.858Z,6.50
2023-01-30T15:44:54.820Z,6.63
2023-01-30T15:47:42.543Z,6.23
2023-01-30T15:50:12.379Z,5.43
2023-01-30T15:52:45.431Z,6.00
2023-01-30T15:55:18.661Z,6.17
2023-01-30T15:57:51.206Z,7.00
2023-01-30T16:00:27.680Z,5.53
2023-01-30T16:02:56.483Z,9.87
2023-01-30T16:05:27.077Z,9.23
2023-01-30T16:07:56.835Z,7.57
2023-01-30T16:10:26.612Z,8.13
2023-01-30T16:12:57.419Z,6.90
2023-01-30T16:15:29.430Z,8.63
2023-01-30T16:18:05.419Z,8.90
2023-01-30T16:20:58.994Z,10.40
2023-01-30T16:23:32.371Z,9.87
2023-01-30T16:26:00.900Z,9.50
2023-01-30T16:28:32.034Z,6.83
2023-01-30T16:31:02.217Z,9.47
2023-01-30T16:33:36.014Z,8.10
2023-01-30T16:36:08.015Z,9.20
2023-01-30T16:38:43.376Z,8.57
2023-01-30T16:41:33.749Z,8.43
2023-01-30T16:44:23.886Z,10.87
2023-01-30T16:46:57.731Z,7.33
2023-01-30T16:49:38.531Z,8.20
2023-01-30T16:52:16.825Z,9.27
2023-01-30T16:54:47.737Z,8.33
2023-01-30T16:57:28.733Z,8.07
2023-01-30T16:59:56.586Z,8.67
2023-01-30T17:02:29.984Z,8.37
2023-01-30T17:05:16.047Z,7.30
2023-01-30T17:07:45.702Z,7.67
2023-01-30T17:10:46.747Z,9.37
2023-01-30T17:13:31.968Z,8.50
2023-01-30T17:16:31.542Z,9.93
2023-01-30T17:18:59.879Z,7.77
2023-01-30T17:21:31.347Z,6.20
2023-01-30T17:24:02.979Z,6.17
2023-01-30T17:26:32.020Z,5.10
2023-01-30T17:29:00.788Z,6.33
2023-01-30T17:31:28.487Z,7.83
2023-01-30T17:33:56.767Z,6.93
2023-01-30T17:36:27.843Z,5.73
2023-01-30T17:38:56.463Z,5.90
2023-01-30T17:41:28.477Z,6.97
2023-01-30T17:43:56.656Z,6.90
2023-01-30T17:46:28.254Z,6.77
2023-01-30T17:48:56.749Z,6.10
2023-01-30T17:51:24.396Z,7.10
2023-01-30T17:53:52.212Z,5.43
2023-01-30T17:56:24.168Z,7.13
2023-01-30T17:58:53.562Z,6.40
2023-01-30T18:01:21.148Z,5.47
2023-01-30T18:03:49.059Z,5.60
2023-01-30T18:06:17.280Z,4.80
2023-01-30T18:08:45.283Z,5.33
2023-01-30T18:11:14.775Z,5.77
2023-01-30T18:13:47.248Z,5.70
2023-01-30T18:16:26.363Z,8.03
2023-01-30T18:18:54.808Z,5.90
2023-01-30T18:21:23.003Z,6.03
2023-01-30T18:23:50.942Z,7.00
2023-01-30T18:26:19.845Z,5.83
2023-01-30T18:28:48.239Z,6.27
2023-01-30T18:31:18.147Z,4.90
2023-01-30T18:33:45.789Z,5.63
2023-01-30T18:36:15.487Z,5.50
2023-01-30T18:38:43.266Z,4.07
2023-01-30T18:41:14.237Z,4.03
2023-01-30T18:43:42.464Z,4.60
2023-01-30T18:46:12.998Z,5.10
2023-01-30T18:48:42.456Z,5.43
2023-01-30T18:51:12.965Z,4.03
2023-01-30T18:53:40.731Z,6.43
2023-01-30T18:56:09.628Z,6.07
2023-01-30T18:58:37.329Z,4.53
2023-01-30T19:01:11.560Z,4.07
2023-01-30T19:03:39.365Z,3.13
2023-01-30T19:06:11.738Z,4.17
2023-01-30T19:08:39.543Z,3.53
2023-01-30T19:11:22.411Z,4.97
2023-01-30T19:13:50.018Z,3.63
2023-01-30T19:16:19.382Z,4.23
2023-01-30T19:18:47.092Z,3.60
2023-01-30T19:21:16.493Z,8.97
2023-01-30T19:23:44.761Z,4.20
2023-01-30T19:26:13.494Z,4.70
2023-01-30T19:28:44.502Z,3.87
2023-01-30T19:31:14.930Z,3.23
2023-01-30T19:33:43.345Z,4.23
2023-01-30T19:36:12.822Z,4.47
2023-01-30T19:38:42.696Z,4.27
2023-01-30T19:41:12.330Z,2.33
2023-01-30T19:43:40.858Z,3.17
2023-01-30T19:46:11.096Z,3.37
2023-01-30T19:48:39.274Z,2.63
2023-01-30T19:51:18.159Z,2.80
2023-01-30T19:53:52.687Z,2.20
2023-01-30T19:56:22.492Z,2.90
2023-01-30T19:58:51.609Z,1.90
2023-01-30T20:01:20.893Z,2.00
2023-01-30T20:03:49.372Z,2.73
2023-01-30T20:06:18.817Z,2.50
2023-01-30T20:08:50.236Z,2.57
2023-01-30T20:11:20.998Z,2.40
2023-01-30T20:13:49.470Z,2.40
2023-01-30T20:16:21.004Z,3.10
2023-01-30T20:18:49.944Z,3.63
2023-01-30T20:21:19.420Z,5.37
2023-01-30T20:23:49.204Z,3.37
2023-01-30T20:26:19.659Z,2.23
2023-01-30T20:28:47.379Z,3.63
2023-01-30T20:31:18.153Z,2.47
2023-01-30T20:33:45.904Z,2.57
2023-01-30T20:36:15.906Z,2.80
2023-01-30T20:38:44.988Z,2.50
2023-01-30T20:41:17.103Z,4.20
2023-01-30T20:43:48.980Z,4.50
2023-01-30T20:46:18.614Z,4.13
2023-01-30T20:48:47.294Z,3.47
2023-01-30T20:51:16.755Z,3.43
2023-01-30T20:53:48.404Z,3.40
2023-01-30T20:56:17.836Z,4.00
2023-01-30T20:58:45.783Z,3.10
2023-01-30T21:01:17.944Z,6.10
2023-01-30T21:03:48.002Z,3.23
2023-01-30T21:06:42.643Z,2.83
2023-01-30T21:09:04.682Z,3.13
2023-01-30T21:11:34.797Z,3.40
2023-01-30T21:14:02.405Z,3.30
2023-01-30T21:16:31.811Z,3.90
2023-01-30T21:19:02.333Z,6.00
2023-01-30T21:21:33.554Z,3.07
2023-01-30T21:24:03.552Z,3.13
2023-01-30T21:26:35.377Z,4.83
2023-01-30T21:29:04.016Z,4.83
2023-01-30T21:31:34.307Z,2.67
2023-01-30T21:34:02.657Z,3.00
2023-01-30T21:36:30.609Z,4.30
2023-01-30T21:39:16.113Z,3.53
2023-01-30T21:42:04.443Z,2.90
2023-01-30T21:44:33.853Z,5.40
2023-01-30T21:47:01.596Z,2.50
2023-01-30T21:49:29.225Z,2.93
2023-01-30T21:51:57.237Z,2.73
2023-01-30T21:54:25.535Z,3.00
2023-01-30T21:56:55.687Z,4.03
2023-01-30T21:59:23.319Z,5.37
2023-01-30T22:01:51.608Z,3.63
2023-01-30T22:04:19.568Z,2.93
2023-01-30T22:06:47.153Z,2.80
2023-01-30T22:09:17.164Z,3.60
2023-01-30T22:11:44.946Z,3.87
2023-01-30T22:14:14.713Z,2.63
2023-01-30T22:16:42.697Z,5.53
2023-01-30T22:19:11.535Z,4.30
2023-01-30T22:21:40.639Z,3.50
2023-01-30T22:24:11.600Z,8.77
2023-01-30T22:26:39.726Z,3.50
2023-01-30T22:29:07.691Z,6.37
2023-01-30T22:31:40.390Z,2.43
2023-01-30T22:34:08.912Z,3.90
2023-01-30T22:36:37.537Z,3.43
2023-01-30T22:39:06.234Z,5.33
2023-01-30T22:41:36.233Z,4.70
2023-01-30T22:44:07.302Z,3.53
2023-01-30T22:46:38.571Z,3.17
2023-01-30T22:49:08.268Z,2.67
2023-01-30T22:51:37.574Z,2.50
2023-01-30T22:54:07.029Z,3.33
2023-01-30T22:56:37.341Z,3.73
2023-01-30T22:59:05.788Z,2.83
2023-01-30T23:01:37.251Z,5.30
2023-01-30T23:04:07.296Z,3.10
2023-01-30T23:06:36.799Z,2.73
2023-01-30T23:09:05.699Z,8.77
2023-01-30T23:11:35.725Z,3.27
2023-01-30T23:14:07.684Z,5.70
2023-01-30T23:16:39.198Z,2.97
2023-01-30T23:19:07.227Z,2.17
2023-01-30T23:21:38.037Z,3.20
2023-01-30T23:24:08.643Z,4.67
2023-01-30T23:26:39.178Z,3.37
2023-01-30T23:29:09.087Z,3.30
2023-01-30T23:31:38.946Z,2.73
2023-01-30T23:34:08.451Z,4.77
2023-01-30T23:36:36.554Z,3.67
2023-01-30T23:39:05.406Z,3.57
2023-01-30T23:41:35.331Z,4.60
2023-01-30T23:44:03.717Z,3.97
2023-01-30T23:46:33.352Z,3.67
2023-01-30T23:49:04.103Z,2.83
2023-01-30T23:51:34.159Z,5.33
2023-01-30T23:54:02.494Z,4.90
2023-01-30T23:56:31.917Z,6.20
2023-01-30T23:59:00.439Z,4.37
